This is the latest recevied weather packets stored in our database for station/object VY2CRA-4. If no packets are shown the sender has not sent any weather packets the latest 10 day(s).
| Time | Temp. | Humidity | Pressure | Rain* | Wind** | Luminosity | Snow |
|---|---|---|---|---|---|---|---|
| 1787691578 | 31.11° C | 22% | 1007.5 hPa | 0 mm | - | - | - |
| 1787690378 | 31.67° C | 19% | 1007.4 hPa | 0 mm | - | - | - |
| 1787689177 | 32.78° C | 13% | 1007.2 hPa | 0 mm | - | - | - |
| 1787686775 | 33.89° C | 11% | 1007.3 hPa | 0 mm | - | - | - |
| 1787684373 | 32.78° C | 14% | 1007.5 hPa | 0 mm | - | - | - |
| 1787683172 | 32.78° C | 12% | 1007.7 hPa | 0 mm | - | - | - |
| 1787681971 | 32.78° C | 15% | 1007.6 hPa | 0 mm | - | - | - |
| 1787680770 | 32.22° C | 15% | 1007.7 hPa | 0 mm | - | - | - |
| 1787679569 | 32.22° C | 16% | 1007.8 hPa | 0 mm | - | - | - |
| 1787678368 | 32.22° C | 15% | 1008.2 hPa | 0 mm | - | - | - |
| 1787677167 | 32.22° C | 16% | 1008.3 hPa | 0 mm | - | - | - |
| 1787672364 | 33.89° C | 8% | 1009 hPa | 0 mm | - | - | - |
| 1787668761 | 34.44° C | 7% | 1009.7 hPa | 0 mm | - | - | - |
| 1787666359 | 31.67° C | 16% | 1009.7 hPa | 0 mm | - | - | - |
| 1787665158 | 31.11° C | 21% | 1009.7 hPa | 0 mm | - | - | - |
| 1787663957 | 30° C | 28% | 1009.8 hPa | 0 mm | - | - | - |
| 1787657952 | 32.22° C | 21% | 1010 hPa | 0 mm | - | - | - |
| 1787656751 | 30° C | 32% | 1010 hPa | 0 mm | - | - | - |
| 1787653148 | 23.89° C | 47% | 1010.1 hPa | 0 mm | - | - | - |
| 1787650747 | 24.44° C | 46% | 1010 hPa | 0 mm | - | - | - |
| 1787649862 | 24.44° C | 45% | 1009.8 hPa | 0 mm | - | - | - |
| 1787649546 | 24.44° C | 45% | 1009.8 hPa | 0 mm | - | - | - |
| 1787647144 | 25° C | 43% | 1009.9 hPa | 0 mm | - | - | - |
| 1787645943 | 25.56° C | 43% | 1010.1 hPa | 0 mm | - | - | - |
| 1787643541 | 25.56° C | 42% | 1010.4 hPa | 0 mm | - | - | - |
* Rain since midnight (hover to see other rain measurements)
** Current wind speed in m/s (hover to see current wind gust speed)